createdAt,value
2022-11-05T00:02:45.562Z,85.00
2022-11-05T00:05:31.442Z,85.00
2022-11-05T00:08:19.051Z,85.00
2022-11-05T00:10:49.118Z,84.80
2022-11-05T00:13:35.234Z,84.40
2022-11-05T00:16:21.309Z,84.40
2022-11-05T00:19:06.772Z,84.00
2022-11-05T00:21:53.056Z,84.10
2022-11-05T00:24:39.138Z,84.20
2022-11-05T00:27:09.571Z,84.40
2022-11-05T00:29:38.603Z,85.20
2022-11-05T00:32:07.248Z,84.60
2022-11-05T00:34:35.697Z,84.60
2022-11-05T00:37:04.323Z,84.70
2022-11-05T00:39:32.807Z,84.80
2022-11-05T00:42:18.600Z,85.00
2022-11-05T00:45:08.121Z,85.10
2022-11-05T00:47:53.859Z,85.20
2022-11-05T00:50:23.167Z,85.50
2022-11-05T00:52:58.995Z,85.70
2022-11-05T00:55:29.539Z,85.90
2022-11-05T00:57:58.898Z,86.00
2022-11-05T01:00:29.792Z,86.40
2022-11-05T01:03:02.146Z,86.60
2022-11-05T01:05:31.605Z,86.80
2022-11-05T01:08:00.219Z,86.90
2022-11-05T01:10:48.142Z,87.00
2022-11-05T01:13:18.985Z,87.20
2022-11-05T01:15:51.094Z,87.40
2022-11-05T01:18:20.313Z,87.70
2022-11-05T01:20:49.286Z,87.80
2022-11-05T01:23:18.565Z,87.90
2022-11-05T01:25:47.398Z,88.10
2022-11-05T01:28:15.963Z,88.20
2022-11-05T01:30:44.702Z,88.10
2022-11-05T01:33:14.847Z,88.30
2022-11-05T01:35:43.637Z,88.30
2022-11-05T01:38:12.305Z,88.10
2022-11-05T01:40:44.198Z,87.90
2022-11-05T01:43:15.719Z,87.70
2022-11-05T01:45:44.629Z,87.80
2022-11-05T01:48:16.899Z,88.10
2022-11-05T01:50:48.595Z,88.50
2022-11-05T01:53:20.959Z,88.60
2022-11-05T01:55:51.536Z,88.80
2022-11-05T01:58:22.707Z,88.60
2022-11-05T02:00:51.258Z,88.50
2022-11-05T02:03:21.278Z,88.50
2022-11-05T02:05:50.720Z,88.50
2022-11-05T02:08:23.433Z,88.60
2022-11-05T02:10:52.140Z,88.90
2022-11-05T02:13:20.579Z,89.10
2022-11-05T02:15:53.695Z,89.40
2022-11-05T02:18:27.147Z,89.60
2022-11-05T02:21:04.092Z,89.80
2022-11-05T02:23:59.768Z,90.30
2022-11-05T02:26:45.893Z,89.90
2022-11-05T02:29:35.206Z,89.80
2022-11-05T02:32:06.850Z,89.80
2022-11-05T02:34:41.391Z,89.70
2022-11-05T02:37:13.988Z,89.90
2022-11-05T02:39:47.482Z,90.00
2022-11-05T02:42:20.903Z,90.10
2022-11-05T02:44:54.313Z,89.90
2022-11-05T02:47:28.345Z,89.60
2022-11-05T02:50:04.312Z,89.50
2022-11-05T02:52:37.624Z,89.30
2022-11-05T02:55:09.353Z,89.30
2022-11-05T02:57:38.447Z,89.90
2022-11-05T03:00:08.848Z,89.10
2022-11-05T03:02:39.018Z,88.50
2022-11-05T03:05:07.989Z,88.40
2022-11-05T03:07:41.547Z,88.20
2022-11-05T03:10:30.814Z,88.10
2022-11-05T03:13:05.366Z,88.20
2022-11-05T03:15:57.013Z,88.20
2022-11-05T03:18:32.195Z,88.10
2022-11-05T03:21:04.165Z,88.20
2022-11-05T03:23:37.227Z,88.30
2022-11-05T03:26:08.111Z,88.60
2022-11-05T03:28:38.067Z,89.10
2022-11-05T03:31:08.413Z,89.50
2022-11-05T03:33:39.356Z,90.00
2022-11-05T03:36:11.773Z,90.10
2022-11-05T03:38:43.159Z,90.10
2022-11-05T03:41:30.974Z,90.10
2022-11-05T03:44:02.778Z,89.50
2022-11-05T03:46:33.315Z,89.70
2022-11-05T03:49:04.381Z,90.00
2022-11-05T03:51:55.714Z,90.20
2022-11-05T03:54:24.270Z,90.30
2022-11-05T03:56:58.824Z,90.50
2022-11-05T03:59:27.715Z,90.60
2022-11-05T04:01:56.461Z,90.80
2022-11-05T04:04:26.701Z,91.00
2022-11-05T04:07:12.991Z,91.10
2022-11-05T04:09:59.050Z,91.20
2022-11-05T04:12:45.213Z,91.20
2022-11-05T04:15:13.689Z,91.30
2022-11-05T04:17:41.206Z,91.30
2022-11-05T04:20:28.852Z,91.30
2022-11-05T04:23:17.954Z,91.30
2022-11-05T04:25:46.619Z,91.30
2022-11-05T04:28:15.786Z,91.30
2022-11-05T04:30:44.431Z,91.40
2022-11-05T04:33:15.420Z,91.30
2022-11-05T04:35:46.678Z,91.40
2022-11-05T04:38:16.163Z,91.40
2022-11-05T04:40:44.620Z,91.40
2022-11-05T04:43:15.274Z,91.50
2022-11-05T04:46:02.642Z,91.60
2022-11-05T04:48:31.083Z,91.60
2022-11-05T04:51:19.461Z,91.60
2022-11-05T04:53:47.958Z,91.60
2022-11-05T04:56:19.616Z,91.70
2022-11-05T04:58:48.250Z,91.80
2022-11-05T05:01:17.716Z,91.90
2022-11-05T05:03:48.234Z,91.90
2022-11-05T05:06:17.039Z,91.90
2022-11-05T05:08:47.854Z,92.00
2022-11-05T05:11:34.870Z,92.00
2022-11-05T05:14:03.556Z,92.00
2022-11-05T05:16:32.142Z,92.10
2022-11-05T05:19:00.538Z,92.10
2022-11-05T05:21:39.895Z,92.10
2022-11-05T05:24:11.189Z,92.10
2022-11-05T05:26:40.498Z,92.10
2022-11-05T05:29:09.246Z,92.20
2022-11-05T05:31:37.717Z,92.20
2022-11-05T05:34:06.669Z,92.20
2022-11-05T05:36:35.170Z,92.20
2022-11-05T05:39:06.126Z,92.20
2022-11-05T05:41:36.075Z,92.20
2022-11-05T05:44:06.167Z,92.00
2022-11-05T05:46:35.513Z,92.00
2022-11-05T05:49:09.426Z,92.10
2022-11-05T05:51:44.083Z,92.00
2022-11-05T05:54:13.513Z,91.90
2022-11-05T05:56:44.203Z,91.90
2022-11-05T05:59:12.865Z,91.80
2022-11-05T06:01:41.547Z,91.80
2022-11-05T06:04:10.711Z,91.70
2022-11-05T06:06:39.221Z,91.70
2022-11-05T06:09:07.790Z,91.50
2022-11-05T06:11:36.428Z,91.40
2022-11-05T06:14:06.558Z,91.30
2022-11-05T06:16:36.045Z,91.10
2022-11-05T06:19:04.663Z,91.00
2022-11-05T06:21:33.364Z,90.90
2022-11-05T06:24:02.819Z,90.70
2022-11-05T06:26:31.520Z,90.50
2022-11-05T06:29:00.164Z,90.30
2022-11-05T06:31:30.077Z,90.20
2022-11-05T06:33:58.555Z,90.00
2022-11-05T06:36:26.989Z,89.50
2022-11-05T06:38:55.470Z,88.80
2022-11-05T06:41:24.061Z,88.20
2022-11-05T06:43:52.514Z,87.90
2022-11-05T06:46:21.228Z,87.20
2022-11-05T06:48:51.254Z,86.70
2022-11-05T06:51:20.020Z,86.20
2022-11-05T06:53:48.637Z,85.50
2022-11-05T06:56:17.271Z,84.80
2022-11-05T06:58:45.991Z,83.90
2022-11-05T07:01:14.868Z,83.10
2022-11-05T07:03:45.232Z,82.40
2022-11-05T07:06:15.542Z,81.80
2022-11-05T07:08:44.228Z,81.00
2022-11-05T07:11:12.795Z,80.30
2022-11-05T07:13:41.601Z,79.60
2022-11-05T07:16:10.206Z,78.80
2022-11-05T07:18:38.828Z,78.10
2022-11-05T07:21:07.664Z,77.10
2022-11-05T07:23:37.759Z,76.30
2022-11-05T07:26:06.558Z,75.60
2022-11-05T07:28:35.152Z,74.60
2022-11-05T07:31:03.833Z,74.00
2022-11-05T07:33:36.517Z,73.20
2022-11-05T07:36:05.703Z,72.10
2022-11-05T07:38:34.307Z,71.30
2022-11-05T07:41:04.419Z,70.70
2022-11-05T07:43:33.153Z,70.10
2022-11-05T07:46:01.838Z,69.40
2022-11-05T07:48:30.506Z,68.40
2022-11-05T07:51:17.984Z,67.70
2022-11-05T07:53:48.348Z,67.00
2022-11-05T07:56:18.568Z,66.30
2022-11-05T07:58:47.287Z,65.60
2022-11-05T08:01:16.225Z,64.70
2022-11-05T08:03:45.284Z,63.90
2022-11-05T08:06:13.997Z,63.70
2022-11-05T08:08:42.953Z,63.30
2022-11-05T08:11:12.383Z,62.60
2022-11-05T08:13:42.957Z,62.10
2022-11-05T08:16:11.929Z,61.50
2022-11-05T08:18:40.710Z,60.50
2022-11-05T08:21:09.766Z,60.00
2022-11-05T08:23:39.214Z,59.40
2022-11-05T08:26:07.859Z,58.90
2022-11-05T08:28:36.473Z,58.50
2022-11-05T08:31:07.044Z,58.30
2022-11-05T08:33:35.805Z,57.60
2022-11-05T08:36:05.000Z,56.40
2022-11-05T08:38:33.879Z,54.00
2022-11-05T08:41:02.664Z,51.40
2022-11-05T08:43:31.221Z,48.80
2022-11-05T08:46:01.317Z,46.40
2022-11-05T08:48:31.441Z,44.30
2022-11-05T08:51:01.285Z,42.00
2022-11-05T08:53:29.976Z,40.90
2022-11-05T08:56:01.717Z,38.80
2022-11-05T08:58:31.365Z,38.10
2022-11-05T09:01:04.698Z,37.20
2022-11-05T09:03:35.671Z,36.30
2022-11-05T09:06:04.483Z,35.30
2022-11-05T09:08:33.183Z,34.70
2022-11-05T09:11:01.756Z,34.00
2022-11-05T09:13:30.465Z,33.30
2022-11-05T09:16:00.035Z,32.40
2022-11-05T09:18:28.703Z,31.80
2022-11-05T09:20:59.056Z,31.30
2022-11-05T09:23:27.717Z,30.80
2022-11-05T09:25:56.387Z,30.60
2022-11-05T09:28:25.856Z,30.10
2022-11-05T09:30:54.481Z,29.70
2022-11-05T09:33:24.165Z,29.30
2022-11-05T09:35:53.908Z,29.10
2022-11-05T09:38:24.076Z,28.70
2022-11-05T09:40:57.132Z,28.40
2022-11-05T09:43:31.716Z,28.40
2022-11-05T09:46:03.919Z,28.20
2022-11-05T09:48:33.647Z,28.00
2022-11-05T09:51:02.290Z,27.70
2022-11-05T09:53:32.464Z,27.50
2022-11-05T09:56:02.069Z,27.40
2022-11-05T09:58:36.667Z,27.10
2022-11-05T10:01:06.415Z,26.60
2022-11-05T10:03:35.884Z,26.60
2022-11-05T10:06:09.287Z,26.50
2022-11-05T10:08:43.167Z,26.40
2022-11-05T10:11:15.754Z,25.90
2022-11-05T10:13:46.658Z,25.80
2022-11-05T10:16:21.254Z,25.80
2022-11-05T10:18:52.469Z,25.70
2022-11-05T10:21:44.307Z,25.80
2022-11-05T10:24:18.933Z,25.40
2022-11-05T10:27:06.763Z,25.50
2022-11-05T10:29:36.381Z,25.40
2022-11-05T10:32:07.530Z,25.50
2022-11-05T10:34:37.562Z,25.40
2022-11-05T10:37:06.578Z,25.10
2022-11-05T10:39:36.748Z,25.00
2022-11-05T10:42:23.079Z,24.90
2022-11-05T10:44:54.733Z,25.00
2022-11-05T10:47:32.761Z,24.90
2022-11-05T10:50:02.428Z,24.80
2022-11-05T10:52:34.162Z,24.60
2022-11-05T10:55:06.442Z,24.70
2022-11-05T10:57:36.174Z,25.00
2022-11-05T11:00:25.369Z,25.40
2022-11-05T11:02:55.293Z,25.80
2022-11-05T11:05:25.239Z,26.30
2022-11-05T11:07:55.346Z,26.70
2022-11-05T11:10:25.887Z,27.00
2022-11-05T11:12:54.934Z,27.50
2022-11-05T11:15:25.526Z,27.90
2022-11-05T11:17:54.314Z,28.30
2022-11-05T11:20:25.154Z,28.60
2022-11-05T11:23:01.209Z,28.80
2022-11-05T11:25:32.739Z,28.80
2022-11-05T11:28:05.527Z,29.00
2022-11-05T11:30:35.359Z,29.30
2022-11-05T11:33:08.008Z,29.60
2022-11-05T11:35:38.048Z,29.80
2022-11-05T11:38:07.291Z,30.00
2022-11-05T11:40:38.753Z,30.20
2022-11-05T11:43:14.569Z,30.50
2022-11-05T11:45:47.204Z,30.60
2022-11-05T11:48:18.307Z,30.70
2022-11-05T11:50:48.063Z,30.50
2022-11-05T11:53:26.356Z,30.30
2022-11-05T11:56:00.103Z,30.50
2022-11-05T11:58:39.212Z,30.50
2022-11-05T12:01:15.307Z,30.30
2022-11-05T12:03:46.330Z,30.60
2022-11-05T12:06:19.876Z,30.50
2022-11-05T12:09:13.467Z,30.40
2022-11-05T12:11:45.425Z,30.40
2022-11-05T12:14:22.014Z,30.60
2022-11-05T12:17:00.799Z,30.50
2022-11-05T12:19:39.168Z,30.70
2022-11-05T12:22:16.694Z,30.70
2022-11-05T12:24:56.151Z,30.80
2022-11-05T12:27:34.784Z,31.10
2022-11-05T12:30:05.587Z,31.20
2022-11-05T12:32:57.065Z,31.40
2022-11-05T12:35:32.180Z,31.50
2022-11-05T12:38:05.842Z,31.70
2022-11-05T12:40:59.897Z,32.20
2022-11-05T12:43:38.239Z,31.80
2022-11-05T12:46:25.582Z,31.90
2022-11-05T12:49:03.807Z,31.90
2022-11-05T12:51:39.955Z,32.40
2022-11-05T12:54:14.237Z,32.10
2022-11-05T12:56:44.827Z,32.10
2022-11-05T12:59:19.790Z,32.00
2022-11-05T13:01:50.301Z,31.90
2022-11-05T13:04:25.302Z,31.90
2022-11-05T13:07:15.359Z,32.00
2022-11-05T13:09:46.633Z,32.40
2022-11-05T13:12:16.895Z,32.50
2022-11-05T13:14:48.874Z,32.80
2022-11-05T13:17:19.057Z,32.90
2022-11-05T13:19:50.392Z,32.90
2022-11-05T13:22:23.407Z,32.80
2022-11-05T13:24:53.070Z,33.80
2022-11-05T13:27:41.474Z,34.20
2022-11-05T13:30:14.924Z,34.20
2022-11-05T13:32:45.019Z,34.30
2022-11-05T13:35:17.402Z,34.30
2022-11-05T13:38:02.796Z,34.10
2022-11-05T13:40:57.223Z,34.00
2022-11-05T13:43:31.975Z,34.60
2022-11-05T13:46:12.036Z,34.80
2022-11-05T13:48:59.470Z,35.10
2022-11-05T13:51:47.378Z,35.40
2022-11-05T13:54:36.950Z,35.10
2022-11-05T13:57:12.767Z,36.20
2022-11-05T13:59:48.451Z,36.30
2022-11-05T14:02:22.464Z,37.30
2022-11-05T14:04:58.018Z,36.70
2022-11-05T14:07:31.318Z,36.20
2022-11-05T14:10:01.115Z,36.50
2022-11-05T14:12:31.175Z,36.70
2022-11-05T14:15:02.782Z,36.80
2022-11-05T14:17:55.109Z,36.90
2022-11-05T14:20:41.924Z,37.00
2022-11-05T14:23:31.224Z,37.70
2022-11-05T14:26:13.717Z,37.20
2022-11-05T14:28:43.935Z,37.80
2022-11-05T14:31:47.441Z,38.00
2022-11-05T14:34:24.075Z,38.30
2022-11-05T14:37:18.672Z,39.20
2022-11-05T14:39:48.161Z,39.20
2022-11-05T14:42:18.282Z,39.20
2022-11-05T14:45:01.789Z,40.20
2022-11-05T14:47:31.698Z,40.50
2022-11-05T14:50:03.961Z,40.80
2022-11-05T14:52:33.720Z,41.30
2022-11-05T14:55:02.392Z,41.40
2022-11-05T14:57:52.114Z,41.80
2022-11-05T15:00:46.026Z,42.10
2022-11-05T15:03:47.228Z,42.40
2022-11-05T15:06:28.133Z,42.90
2022-11-05T15:09:13.040Z,43.20
2022-11-05T15:11:44.460Z,43.70
2022-11-05T15:14:20.084Z,44.10
2022-11-05T15:16:50.863Z,44.60
2022-11-05T15:19:22.089Z,44.80
2022-11-05T15:21:52.884Z,45.00
2022-11-05T15:24:22.151Z,45.20
2022-11-05T15:26:54.911Z,45.20
2022-11-05T15:29:25.833Z,44.60
2022-11-05T15:31:54.696Z,44.30
2022-11-05T15:34:24.728Z,44.10
2022-11-05T15:36:56.914Z,43.70
2022-11-05T15:39:29.751Z,43.90
2022-11-05T15:41:59.147Z,44.30
2022-11-05T15:44:29.334Z,43.80
2022-11-05T15:47:14.435Z,44.00
2022-11-05T15:49:43.937Z,44.10
2022-11-05T15:52:16.731Z,44.30
2022-11-05T15:54:45.588Z,44.40
2022-11-05T15:57:31.794Z,44.30
2022-11-05T16:00:00.395Z,44.60
2022-11-05T16:02:32.171Z,44.60
2022-11-05T16:05:01.267Z,44.60
2022-11-05T16:07:31.643Z,45.00
2022-11-05T16:10:01.494Z,45.20
2022-11-05T16:12:37.128Z,45.30
2022-11-05T16:15:19.480Z,45.30
2022-11-05T16:17:50.813Z,45.40
2022-11-05T16:20:20.984Z,45.80
2022-11-05T16:22:52.147Z,45.90
2022-11-05T16:25:38.582Z,46.30
2022-11-05T16:28:08.636Z,46.50
2022-11-05T16:30:57.223Z,46.70
2022-11-05T16:33:26.404Z,46.80
2022-11-05T16:35:55.156Z,47.10
2022-11-05T16:38:25.478Z,47.30
2022-11-05T16:40:54.146Z,47.50
2022-11-05T16:43:24.217Z,47.70
2022-11-05T16:45:54.904Z,47.80
2022-11-05T16:48:23.626Z,48.00
2022-11-05T16:50:52.412Z,48.20
2022-11-05T16:53:21.153Z,48.30
2022-11-05T16:55:51.827Z,48.50
2022-11-05T16:58:21.891Z,48.40
2022-11-05T17:00:51.258Z,48.50
2022-11-05T17:03:20.011Z,48.60
2022-11-05T17:05:48.958Z,48.80
2022-11-05T17:08:17.597Z,48.80
2022-11-05T17:10:46.256Z,48.90
2022-11-05T17:13:17.159Z,49.10
2022-11-05T17:15:46.449Z,49.30
2022-11-05T17:18:18.487Z,49.50
2022-11-05T17:20:48.574Z,49.50
2022-11-05T17:23:18.458Z,49.60
2022-11-05T17:25:47.970Z,49.80
2022-11-05T17:28:18.279Z,50.40
2022-11-05T17:30:52.372Z,49.90
2022-11-05T17:33:21.707Z,49.80
2022-11-05T17:35:50.893Z,49.80
2022-11-05T17:38:19.867Z,49.80
2022-11-05T17:40:48.567Z,49.80
2022-11-05T17:43:18.873Z,49.80
2022-11-05T17:45:48.130Z,49.80
2022-11-05T17:48:16.902Z,49.80
2022-11-05T17:50:46.146Z,49.80
2022-11-05T17:53:15.483Z,49.90
2022-11-05T17:56:02.667Z,49.80
2022-11-05T17:58:32.617Z,49.80
2022-11-05T18:01:01.339Z,49.90
2022-11-05T18:03:29.901Z,49.90
2022-11-05T18:06:02.080Z,49.90
2022-11-05T18:08:30.758Z,50.00
2022-11-05T18:10:59.287Z,50.00
2022-11-05T18:13:27.730Z,50.00
2022-11-05T18:15:57.806Z,50.00
2022-11-05T18:18:26.407Z,50.00
2022-11-05T18:20:57.979Z,50.10
2022-11-05T18:23:26.466Z,50.10
2022-11-05T18:25:57.101Z,50.10
2022-11-05T18:28:25.651Z,50.10
2022-11-05T18:30:54.205Z,50.10
2022-11-05T18:33:24.300Z,50.20
2022-11-05T18:35:53.134Z,50.20
2022-11-05T18:38:21.878Z,50.30
2022-11-05T18:40:50.546Z,50.20
2022-11-05T18:43:37.693Z,50.40
2022-11-05T18:46:06.412Z,50.30
2022-11-05T18:48:36.851Z,50.40
2022-11-05T18:51:08.570Z,50.50
2022-11-05T18:53:37.222Z,50.60
2022-11-05T18:56:08.246Z,50.70
2022-11-05T18:58:37.473Z,50.70
2022-11-05T19:01:25.146Z,50.90
2022-11-05T19:03:55.312Z,51.00
2022-11-05T19:06:25.303Z,51.00
2022-11-05T19:08:54.278Z,51.20
2022-11-05T19:11:24.066Z,51.30
2022-11-05T19:13:52.859Z,51.30
2022-11-05T19:16:22.458Z,51.30
2022-11-05T19:18:50.897Z,51.40
2022-11-05T19:21:22.861Z,51.40
2022-11-05T19:23:51.909Z,51.40
2022-11-05T19:26:27.207Z,51.50
2022-11-05T19:28:58.070Z,51.60
2022-11-05T19:31:26.523Z,51.50
2022-11-05T19:33:55.474Z,51.50
2022-11-05T19:36:25.894Z,51.50
2022-11-05T19:38:58.716Z,51.60
2022-11-05T19:41:27.431Z,51.60
2022-11-05T19:43:58.162Z,51.60
2022-11-05T19:46:26.926Z,51.60
2022-11-05T19:48:55.514Z,51.80
2022-11-05T19:51:26.452Z,51.60
2022-11-05T19:53:55.497Z,51.60
2022-11-05T19:56:25.465Z,51.60
2022-11-05T19:58:54.295Z,51.70
2022-11-05T20:01:24.040Z,52.20
2022-11-05T20:03:52.766Z,51.70
2022-11-05T20:06:22.078Z,51.80
2022-11-05T20:09:20.084Z,51.80
2022-11-05T20:11:41.633Z,51.90
2022-11-05T20:14:11.262Z,52.00
2022-11-05T20:16:40.556Z,52.00
2022-11-05T20:19:10.488Z,52.00
2022-11-05T20:21:39.149Z,52.00
2022-11-05T20:24:09.630Z,52.20
2022-11-05T20:26:38.591Z,52.30
2022-11-05T20:29:07.461Z,52.50
2022-11-05T20:31:35.941Z,52.50
2022-11-05T20:34:04.529Z,52.50
2022-11-05T20:36:33.149Z,52.50
2022-11-05T20:39:02.955Z,52.80
2022-11-05T20:41:33.364Z,52.90
2022-11-05T20:44:01.887Z,53.10
2022-11-05T20:46:30.436Z,53.20
2022-11-05T20:48:59.027Z,53.30
2022-11-05T20:51:31.038Z,53.40
2022-11-05T20:54:00.843Z,53.50
2022-11-05T20:56:30.820Z,53.60
2022-11-05T20:59:01.048Z,53.80
2022-11-05T21:01:30.327Z,53.90
2022-11-05T21:03:59.851Z,54.00
2022-11-05T21:06:28.399Z,54.10
2022-11-05T21:08:56.950Z,54.30
2022-11-05T21:11:25.484Z,54.30
2022-11-05T21:13:54.140Z,54.40
2022-11-05T21:16:24.127Z,54.60
2022-11-05T21:18:52.763Z,54.60
2022-11-05T21:21:21.815Z,54.60
2022-11-05T21:23:50.300Z,54.70
2022-11-05T21:26:19.108Z,54.90
2022-11-05T21:28:47.609Z,55.00
2022-11-05T21:31:16.108Z,55.10
2022-11-05T21:33:49.763Z,55.30
2022-11-05T21:36:21.129Z,55.30
2022-11-05T21:38:49.613Z,55.30
2022-11-05T21:41:18.227Z,55.40
2022-11-05T21:43:46.945Z,55.40
2022-11-05T21:46:15.453Z,56.20
2022-11-05T21:48:45.398Z,55.70
2022-11-05T21:51:49.811Z,55.70
2022-11-05T21:54:35.377Z,55.80
2022-11-05T21:57:21.428Z,55.80
2022-11-05T21:59:51.860Z,55.60
2022-11-05T22:02:21.570Z,55.60
2022-11-05T22:05:10.509Z,55.70
2022-11-05T22:07:39.671Z,55.70
2022-11-05T22:10:15.579Z,56.00
2022-11-05T22:12:45.020Z,55.90
2022-11-05T22:15:13.675Z,56.10
2022-11-05T22:17:46.559Z,56.20
2022-11-05T22:20:18.053Z,56.90
2022-11-05T22:23:10.905Z,56.40
2022-11-05T22:25:39.823Z,56.50
2022-11-05T22:28:26.914Z,56.70
2022-11-05T22:30:55.343Z,56.70
2022-11-05T22:33:23.866Z,56.70
2022-11-05T22:35:53.845Z,56.80
2022-11-05T22:38:22.266Z,56.80
2022-11-05T22:40:50.798Z,56.80
2022-11-05T22:43:19.336Z,57.10
2022-11-05T22:45:47.690Z,57.30
2022-11-05T22:48:16.648Z,57.40
2022-11-05T22:50:45.194Z,57.70
2022-11-05T22:53:16.917Z,57.90
2022-11-05T22:55:45.520Z,58.00
2022-11-05T22:58:14.523Z,58.10
2022-11-05T23:00:43.212Z,58.30
2022-11-05T23:03:11.779Z,58.30
2022-11-05T23:05:40.325Z,58.50
2022-11-05T23:08:34.802Z,58.60
2022-11-05T23:11:24.095Z,58.60
2022-11-05T23:13:52.779Z,58.50
2022-11-05T23:16:38.762Z,58.70
2022-11-05T23:19:24.751Z,58.80
2022-11-05T23:22:10.735Z,59.00
2022-11-05T23:24:39.339Z,59.00
2022-11-05T23:27:09.364Z,59.20
2022-11-05T23:29:37.932Z,59.20
2022-11-05T23:32:24.022Z,59.30
2022-11-05T23:34:52.545Z,59.50
2022-11-05T23:37:38.703Z,59.60
2022-11-05T23:40:08.558Z,59.70
2022-11-05T23:42:55.667Z,59.50
2022-11-05T23:45:41.424Z,59.50
2022-11-05T23:48:18.978Z,59.50
2022-11-05T23:50:49.647Z,59.60
2022-11-05T23:53:18.379Z,59.70
2022-11-05T23:55:46.838Z,59.70
2022-11-05T23:58:17.299Z,59.60
